หน้าหลัก
METAR-TAF:

METAR-TAF

ท่าอากาศยาน :

Ciudad Obregón, เม็กซิโก

ละติจูด: 27-24N, ลองจิจูด: 109-50W, ความสูง: 62 ม.

การสังเกตสภาพอากาศปัจจุบัน

รายงานได้ทำขึ้นเมื่อ 42 นาทีที่แล้ว ณ เวลา 13:43 UTC
ลม 9 นอตจากตะวันออกเฉียงใต้
อุณหภูมิ 26°C
ความชื้น 74%
ความกดอากาศ 1005 hPa
ทัศนวิสัย: 16.1 กม.
ท้องฟ้าแจ่มใส

METAR: MMCN 181343Z 13009KT 10SM SKC 26/21 A2968 RMK HZY

เวลา: 07:25 (14:25 UTC)

การพยากรณ์

รายงานได้ทำขึ้นเมื่อ 10 ชั่วโมงและ 4 นาทีที่แล้ว ณ เวลา 04:21 UTC
การพยากรณ์มีผลตั้งแต่วันที่ 18 ณ เวลา 06 UTC จนถึงวันที่ 19 ณ เวลา 06 UTC
ลม 5 นอตจากใต้/ตะวันออกเฉียงใต้
ทัศนวิสัย: 10 กม.
ท้องฟ้าแจ่มใส
จาก 18 ณ เวลา 1700 UTC
ลม 12 นอตจากใต้/ตะวันตกเฉียงใต้
ทัศนวิสัย: 10 กม.
ท้องฟ้าแจ่มใส
จาก 19 ณ เวลา 0300 UTC
ลม 5 นอตจากใต้/ตะวันตกเฉียงใต้
ทัศนวิสัย: 10 กม.
ท้องฟ้าแจ่มใส

TAF: MMCN 180421Z 1806/1906 16005KT P6SM SKC FM181700 20012KT P6SM SKC FM190300 20005KT P6SM SKC

สังเกตการณ์สภาพอากาศและพยากรณ์อากาศของสนามบินมากกว่า 4000 แห่ง (รายงาน METAR และ TAF).

สถานีที่ดูได้จะแสดงไว้ด้วยจุดสีเหลืองและสีแดงบนแผนที่.

เลื่อนเมาส์ไปเหนือจุดเพื่อดูชื่อสถานี.

แล้วคลิกเพื่อดูสังเกตการณ์และการพยากรณ์สภาพอากาศ.

ในการเปลี่ยนแผนที่: คลิกที่ปุ่มสีเขียวที่มีกากบาทสีดำเพื่อซูมเข้า; ที่ปุ่มสีเขียวที่มีขีดเพื่อซูมออก; หรือที่ลูกศรสีเขียวเพื่อไปยังแผนที่ที่อยู่ติดกัน.


METAR-TAF: